Time;durP1;ratioP1;P1;durP2;ratioP2;P2;SDS_P1;SDS_P2;PMS_P1;PMS_P2;Temp;Humidity;BMP_temperature;BMP_pressure;BME280_temperature;BME280_humidity;BME280_pressure;Samples;Min_cycle;Max_cycle;Signal;HPM_P1;HPM_P2
2021/11/27 00:03:38;;;;;;;34.58;25.77;;;;;;;3.97;100.00;98706.53;10581595;28;20146;-58
2021/11/27 00:08:41;;;;;;;42.08;27.23;;;;;;;3.75;100.00;98691.53;10581602;28;20059;-58
2021/11/27 00:13:43;;;;;;;39.25;27.10;;;;;;;3.82;100.00;98690.22;10581544;28;20055;-58
2021/11/27 00:18:46;;;;;;;35.13;25.13;;;;;;;3.82;100.00;98684.22;10582192;28;20040;-59
2021/11/27 00:23:50;;;;;;;37.78;27.13;;;;;;;3.95;100.00;98690.28;10587152;28;20078;-57
2021/11/27 00:28:53;;;;;;;39.03;26.13;;;;;;;3.95;100.00;98679.91;10589541;28;20052;-57
2021/11/27 00:33:57;;;;;;;38.17;26.40;;;;;;;3.86;100.00;98681.31;10588934;28;20484;-57
2021/11/27 00:39:00;;;;;;;34.72;23.48;;;;;;;3.99;100.00;98676.19;10588894;28;20058;-57
2021/11/27 00:44:02;;;;;;;31.48;21.77;;;;;;;4.21;100.00;98683.41;10588961;28;20050;-58
2021/11/27 00:49:05;;;;;;;36.03;24.30;;;;;;;3.96;100.00;98680.75;10570768;28;20052;-56
2021/11/27 00:54:07;;;;;;;34.45;22.48;;;;;;;3.96;100.00;98688.50;10588318;28;20047;-56
2021/11/27 00:59:10;;;;;;;26.75;20.17;;;;;;;4.16;100.00;98687.22;10588722;28;20433;-58
2021/11/27 01:04:13;;;;;;;23.08;17.55;;;;;;;3.85;100.00;98677.09;10588323;28;20055;-57
2021/11/27 01:09:16;;;;;;;21.17;15.30;;;;;;;3.40;100.00;98663.50;10588494;28;20054;-59
2021/11/27 01:14:21;;;;;;;16.50;11.25;;;;;;;3.37;100.00;98661.09;10569700;28;20135;-57
2021/11/27 01:19:25;;;;;;;16.90;12.35;;;;;;;3.57;100.00;98662.47;10569698;28;20075;-56
2021/11/27 01:24:28;;;;;;;14.00;10.52;;;;;;;3.45;100.00;98664.06;10587220;28;20487;-58
2021/11/27 01:29:31;;;;;;;10.60;8.73;;;;;;;3.54;100.00;98667.81;10587865;28;20075;-59
2021/11/27 01:34:35;;;;;;;7.57;6.50;;;;;;;3.49;100.00;98664.69;10586123;28;20052;-58
2021/11/27 01:39:38;;;;;;;8.40;7.00;;;;;;;3.46;100.00;98665.72;10586526;28;20376;-58
2021/11/27 01:44:41;;;;;;;9.32;7.13;;;;;;;3.26;100.00;98663.50;10568965;28;20043;-57
2021/11/27 01:49:43;;;;;;;8.15;6.97;;;;;;;3.40;100.00;98678.22;10586305;28;20047;-59
2021/11/27 01:54:46;;;;;;;8.30;7.43;;;;;;;3.29;100.00;98677.09;10586166;28;20047;-57
2021/11/27 01:59:49;;;;;;;12.43;7.55;;;;;;;3.34;100.00;98684.56;10585867;28;20069;-58
2021/11/27 02:04:51;;;;;;;13.90;6.47;;;;;;;3.10;100.00;98684.31;10585747;28;20491;-58
2021/11/27 02:09:53;;;;;;;4.15;3.75;;;;;;;2.73;100.00;98687.34;10585959;28;20122;-58
2021/11/27 02:14:56;;;;;;;4.68;3.47;;;;;;;2.90;100.00;98693.25;10585397;28;20043;-58
2021/11/27 02:19:58;;;;;;;3.92;1.98;;;;;;;2.66;100.00;98698.13;10585402;28;20514;-56
2021/11/27 02:25:08;;;;;;;2.75;2.13;;;;;;;2.63;100.00;98699.13;10584968;28;20054;-57
2021/11/27 02:30:11;;;;;;;1.83;1.73;;;;;;;2.67;100.00;98703.19;10585472;28;20070;-57
2021/11/27 02:35:14;;;;;;;2.70;1.90;;;;;;;2.48;100.00;98703.44;10584883;28;20048;-57
2021/11/27 02:40:17;;;;;;;3.08;2.78;;;;;;;2.42;100.00;98709.78;10583845;28;20487;-57
2021/11/27 02:45:19;;;;;;;5.38;2.78;;;;;;;2.20;100.00;98706.75;10584512;28;20055;-58
2021/11/27 02:50:22;;;;;;;5.28;3.20;;;;;;;2.17;100.00;98702.59;10583860;28;20048;-59
2021/11/27 02:55:24;;;;;;;5.90;3.85;;;;;;;2.36;100.00;98723.03;10583338;28;20048;-59
2021/11/27 03:00:27;;;;;;;8.80;2.60;;;;;;;2.09;100.00;98714.28;10583387;28;20054;-59
2021/11/27 03:05:29;;;;;;;5.68;3.15;;;;;;;2.12;100.00;98719.25;10583682;28;20040;-61
2021/11/27 03:10:32;;;;;;;4.18;3.05;;;;;;;2.09;100.00;98729.78;10583250;28;20079;-61
2021/11/27 03:15:41;;;;;;;3.20;2.50;;;;;;;1.97;100.00;98731.28;10582925;28;20398;-59
2021/11/27 03:20:43;;;;;;;3.00;2.20;;;;;;;2.04;100.00;98732.59;10565448;28;20130;-60
2021/11/27 03:25:46;;;;;;;2.15;1.80;;;;;;;2.11;100.00;98738.25;10582820;28;20143;-58
2021/11/27 03:30:49;;;;;;;3.50;2.15;;;;;;;1.78;100.00;98734.88;10583084;28;20058;-57
2021/11/27 03:35:51;;;;;;;1.77;1.10;;;;;;;1.45;100.00;98727.19;10582287;28;20566;-60
2021/11/27 03:40:54;;;;;;;2.25;1.67;;;;;;;1.59;100.00;98737.56;10582095;28;20093;-59
2021/11/27 03:45:56;;;;;;;3.38;2.13;;;;;;;1.54;100.00;98741.31;10582031;28;20071;-59
2021/11/27 03:51:00;;;;;;;3.58;1.80;;;;;;;1.39;100.00;98738.63;10581795;28;20079;-60
2021/11/27 03:56:06;;;;;;;2.25;1.52;;;;;;;1.37;100.00;98755.13;10585046;28;20383;-60
2021/11/27 04:01:11;;;;;;;6.97;2.25;;;;;;;1.32;100.00;98765.66;10596516;28;20047;-60
2021/11/27 04:06:15;;;;;;;2.60;2.22;;;;;;;1.25;100.00;98770.28;10596030;28;20043;-60
2021/11/27 04:11:17;;;;;;;2.22;2.00;;;;;;;1.16;100.00;98775.09;10595387;28;20052;-61
2021/11/27 04:16:20;;;;;;;2.28;1.80;;;;;;;1.13;100.00;98780.38;10596022;28;20047;-57
2021/11/27 04:21:22;;;;;;;3.88;1.77;;;;;;;1.21;100.00;98783.41;10595229;28;20052;-61
2021/11/27 04:26:25;;;;;;;1.50;1.38;;;;;;;1.17;100.00;98784.50;10595329;28;20449;-58
2021/11/27 04:31:27;;;;;;;1.60;1.50;;;;;;;1.28;100.00;98808.00;10595222;28;20050;-61
2021/11/27 04:36:30;;;;;;;3.58;1.75;;;;;;;1.33;100.00;98818.91;10595273;28;20100;-59
2021/11/27 04:41:32;;;;;;;2.88;1.67;;;;;;;1.07;100.00;98825.34;10594781;28;20079;-58
2021/11/27 04:46:35;;;;;;;2.00;1.80;;;;;;;0.68;100.00;98824.66;10595115;28;20040;-60
2021/11/27 04:51:37;;;;;;;1.73;1.63;;;;;;;1.08;100.00;98837.34;10594386;28;20051;-60
2021/11/27 04:56:40;;;;;;;1.75;1.50;;;;;;;0.74;100.00;98836.44;10595658;28;20055;-58
2021/11/27 05:01:42;;;;;;;1.40;1.30;;;;;;;0.71;100.00;98841.72;10594417;28;20096;-59
2021/11/27 05:06:45;;;;;;;1.42;1.30;;;;;;;0.76;100.00;98857.78;10594336;28;20165;-60
2021/11/27 05:11:47;;;;;;;1.67;1.58;;;;;;;0.54;100.00;98856.22;10587002;28;20051;-60
2021/11/27 05:16:50;;;;;;;2.67;2.40;;;;;;;0.88;100.00;98876.97;10588449;28;20051;-60
2021/11/27 05:21:52;;;;;;;2.53;2.33;;;;;;;0.82;100.00;98877.25;10587473;28;20055;-60
2021/11/27 05:26:54;;;;;;;4.68;3.28;;;;;;;0.45;100.00;98877.25;10587640;28;20049;-60
2021/11/27 05:32:04;;;;;;;3.35;2.88;;;;;;;0.59;100.00;98883.50;10586845;28;20047;-60
2021/11/27 05:37:07;;;;;;;3.72;3.30;;;;;;;0.78;100.00;98888.63;10586889;28;20055;-59
2021/11/27 05:42:11;;;;;;;4.43;3.75;;;;;;;0.71;100.00;98895.81;10586520;28;20050;-60
2021/11/27 05:47:13;;;;;;;4.00;3.03;;;;;;;1.04;100.00;98914.00;10586933;28;20051;-58
2021/11/27 05:52:18;;;;;;;2.53;2.33;;;;;;;0.78;100.00;98902.34;10586647;28;20050;-55
2021/11/27 05:57:20;;;;;;;4.97;3.30;;;;;;;0.75;100.00;98910.22;10586453;28;20055;-60
2021/11/27 06:02:22;;;;;;;3.20;2.90;;;;;;;0.64;100.00;98915.88;10585622;28;20047;-58
2021/11/27 06:07:25;;;;;;;2.65;2.45;;;;;;;0.83;100.00;98941.59;10585548;28;20047;-60
2021/11/27 06:12:27;;;;;;;3.13;2.83;;;;;;;1.15;100.00;98948.72;10585209;28;20048;-60
2021/11/27 06:17:29;;;;;;;4.00;3.53;;;;;;;1.03;100.00;98950.97;10585753;28;20055;-59
2021/11/27 06:22:32;;;;;;;4.72;3.47;;;;;;;1.13;100.00;98955.66;10584429;28;20487;-60
2021/11/27 06:27:55;;;;;;;5.90;3.88;;;;;;;0.97;100.00;98956.41;10585990;28;20048;-58
2021/11/27 06:32:57;;;;;;;4.43;3.28;;;;;;;1.04;100.00;98967.25;10584991;28;20051;-59
2021/11/27 06:38:00;;;;;;;5.30;3.88;;;;;;;1.17;100.00;98967.53;10584788;28;20040;-60
2021/11/27 06:43:02;;;;;;;6.50;3.88;;;;;;;1.33;100.00;98983.94;10584377;28;20074;-59
2021/11/27 06:48:04;;;;;;;7.82;4.13;;;;;;;0.96;100.00;98979.66;10566632;28;20067;-60
2021/11/27 06:53:07;;;;;;;4.93;3.88;;;;;;;1.20;100.00;98999.13;10584200;28;20039;-59
2021/11/27 06:58:10;;;;;;;5.68;4.63;;;;;;;0.98;100.00;98998.50;10584016;28;20054;-60
2021/11/27 07:03:12;;;;;;;7.00;5.50;;;;;;;1.18;100.00;99008.69;10583818;28;20055;-59
2021/11/27 07:08:14;;;;;;;8.25;5.07;;;;;;;1.29;100.00;99026.22;10583554;28;20048;-59
2021/11/27 07:13:18;;;;;;;9.63;6.07;;;;;;;1.25;100.00;99038.44;10583336;28;20044;-60
2021/11/27 07:18:21;;;;;;;13.18;6.72;;;;;;;1.31;100.00;99045.03;10583841;28;20139;-59
2021/11/27 07:23:23;;;;;;;8.32;6.05;;;;;;;1.44;100.00;99046.13;10582650;28;20050;-60
2021/11/27 07:28:25;;;;;;;7.82;6.18;;;;;;;1.27;100.00;99048.66;10583221;28;20044;-59
2021/11/27 07:33:28;;;;;;;10.75;7.13;;;;;;;0.89;100.00;99038.38;10581885;28;20051;-59
2021/11/27 07:38:31;;;;;;;11.90;7.60;;;;;;;1.18;100.00;99057.69;10564204;28;20066;-60
2021/11/27 07:43:34;;;;;;;11.18;7.18;;;;;;;1.46;100.00;99071.84;10582568;28;20047;-59
2021/11/27 07:48:36;;;;;;;12.85;8.15;;;;;;;1.32;100.00;99069.91;10564026;28;20054;-59
2021/11/27 07:53:41;;;;;;;12.23;7.75;;;;;;;1.39;100.00;99084.19;10582160;28;20043;-59
2021/11/27 07:58:44;;;;;;;12.82;7.90;;;;;;;1.40;100.00;99090.19;10582070;28;20048;-59
2021/11/27 08:03:47;;;;;;;10.55;7.28;;;;;;;1.55;100.00;99101.53;10581479;28;20044;-59
2021/11/27 08:08:49;;;;;;;9.63;6.80;;;;;;;1.47;100.00;99101.88;10581457;28;20506;-61
2021/11/27 08:13:52;;;;;;;6.97;5.57;;;;;;;1.72;100.00;99116.22;10581571;28;20054;-61
2021/11/27 08:18:54;;;;;;;7.38;5.40;;;;;;;1.92;100.00;99128.16;10581424;28;20051;-60
2021/11/27 08:23:57;;;;;;;13.63;7.55;;;;;;;1.66;100.00;99132.81;10581404;28;20055;-59
2021/11/27 08:28:59;;;;;;;13.55;8.35;;;;;;;1.99;100.00;99139.84;10581235;28;20086;-58
2021/11/27 08:34:01;;;;;;;16.65;9.50;;;;;;;1.89;100.00;99141.22;10562914;28;20083;-59
2021/11/27 08:39:04;;;;;;;15.10;9.48;;;;;;;2.02;100.00;99156.03;10563470;28;20047;-60
2021/11/27 08:44:07;;;;;;;22.45;12.30;;;;;;;2.11;100.00;99169.41;10567718;28;20054;-60
2021/11/27 08:49:09;;;;;;;36.70;17.42;;;;;;;1.84;100.00;99170.63;10589738;28;20426;-59
2021/11/27 08:54:13;;;;;;;40.08;19.70;;;;;;;1.67;100.00;99174.00;10588735;28;20055;-62
2021/11/27 08:59:16;;;;;;;44.13;20.80;;;;;;;1.85;100.00;99180.06;10588514;28;20077;-60
2021/11/27 09:04:19;;;;;;;37.60;20.05;;;;;;;1.84;100.00;99185.28;10587894;28;20059;-60
2021/11/27 09:09:21;;;;;;;38.05;20.70;;;;;;;2.26;100.00;99199.63;10588133;28;20062;-59
2021/11/27 09:14:24;;;;;;;41.60;20.73;;;;;;;2.37;100.00;99204.25;10569598;28;20514;-58
2021/11/27 09:19:26;;;;;;;39.85;20.90;;;;;;;2.47;100.00;99210.69;10587425;28;20054;-59
2021/11/27 09:24:29;;;;;;;62.42;25.55;;;;;;;2.22;100.00;99206.69;10587532;28;20054;-61
2021/11/27 09:29:33;;;;;;;65.80;24.80;;;;;;;2.63;100.00;99215.09;10587134;28;20059;-60
2021/11/27 09:34:35;;;;;;;47.67;22.55;;;;;;;2.78;100.00;99229.81;10586928;28;20052;-58
2021/11/27 09:39:38;;;;;;;67.68;27.88;;;;;;;2.59;100.00;99225.56;10586534;28;20399;-59
2021/11/27 09:44:47;;;;;;;91.15;31.98;;;;;;;2.63;100.00;99228.81;10586324;28;20047;-60
2021/11/27 09:49:50;;;;;;;93.43;34.00;;;;;;;2.76;100.00;99245.41;10586950;28;20135;-59
2021/11/27 09:54:53;;;;;;;91.68;35.25;;;;;;;2.93;100.00;99252.31;10585567;28;20044;-58
2021/11/27 09:59:55;;;;;;;80.97;29.50;;;;;;;3.23;100.00;99255.97;10586336;28;20051;-58
2021/11/27 10:04:58;;;;;;;92.28;33.28;;;;;;;2.57;100.00;99242.91;10585919;28;20048;-61
2021/11/27 10:10:00;;;;;;;91.38;35.50;;;;;;;2.77;100.00;99249.66;10567441;28;20052;-59
2021/11/27 10:15:03;;;;;;;90.80;33.13;;;;;;;2.95;100.00;99265.16;10567977;28;20044;-58
2021/11/27 10:20:07;;;;;;;93.22;35.35;;;;;;;2.77;100.00;99259.16;10567058;28;20089;-58
2021/11/27 10:25:34;;;;;;;97.70;38.75;;;;;;;2.83;100.00;99258.84;10567486;28;20039;-58
2021/11/27 10:31:02;;;;;;;96.10;36.47;;;;;;;2.85;100.00;99258.78;10584952;28;20055;-57
2021/11/27 10:36:09;;;;;;;59.63;27.17;;;;;;;3.07;100.00;99267.09;10568364;28;20043;-60
2021/11/27 10:41:15;;;;;;;67.53;29.25;;;;;;;2.33;100.00;99265.56;10566203;28;20415;-59
2021/11/27 10:46:31;;;;;;;50.78;24.90;;;;;;;2.53;100.00;99268.94;10584073;28;20406;-60
2021/11/27 10:51:34;;;;;;;63.70;28.08;;;;;;;2.67;100.00;99265.69;10583647;28;20062;-61
2021/11/27 10:56:49;;;;;;;76.00;33.83;;;;;;;2.94;100.00;99284.16;10583589;28;20044;-60
2021/11/27 11:02:02;;;;;;;67.38;29.92;;;;;;;3.01;100.00;99285.53;10583646;28;20074;-60
2021/11/27 11:07:26;;;;;;;72.00;34.17;;;;;;;3.17;100.00;99288.16;10582799;28;20083;-60
2021/11/27 11:12:44;;;;;;;86.30;37.83;;;;;;;3.34;100.00;99295.06;10583067;28;20047;-57
2021/11/27 11:17:49;;;;;;;75.05;35.88;;;;;;;3.29;100.00;99297.06;10583263;28;20051;-59
2021/11/27 11:23:01;;;;;;;73.25;32.10;;;;;;;2.99;100.00;99287.34;10582691;28;20043;-59
2021/11/27 11:28:15;;;;;;;55.47;27.35;;;;;;;3.77;100.00;99307.53;10582687;28;20048;-58
2021/11/27 11:33:19;;;;;;;56.58;29.83;;;;;;;4.26;100.00;99307.47;10582473;28;20059;-58
2021/11/27 11:38:21;;;;;;;54.03;27.65;;;;;;;4.95;100.00;99316.53;10582768;28;20044;-59
2021/11/27 11:43:24;;;;;;;46.55;24.20;;;;;;;5.75;100.00;99337.75;10581733;28;20048;-59
2021/11/27 11:48:28;;;;;;;51.83;24.63;;;;;;;5.71;100.00;99327.66;10581887;28;20495;-60
2021/11/27 11:53:40;;;;;;;35.25;19.02;;;;;;;5.31;100.00;99311.88;10563970;28;20131;-58
2021/11/27 11:58:44;;;;;;;37.13;16.67;;;;;;;5.19;100.00;99310.81;10564010;28;20043;-60
2021/11/27 12:03:49;;;;;;;31.63;15.20;;;;;;;5.28;100.00;99317.22;10581386;28;20400;-57
2021/11/27 12:08:51;;;;;;;25.40;13.05;;;;;;;4.54;100.00;99292.94;10581778;28;20048;-59
2021/11/27 12:13:58;;;;;;;28.30;14.10;;;;;;;5.08;100.00;99314.06;10581281;28;20498;-57
2021/11/27 12:19:09;;;;;;;28.30;12.25;;;;;;;4.93;100.00;99310.59;10586118;28;20506;-60
2021/11/27 12:24:28;;;;;;;25.92;11.25;;;;;;;4.71;100.00;99297.19;10590110;28;20047;-59
2021/11/27 12:29:30;;;;;;;20.88;9.68;;;;;;;4.93;100.00;99320.16;10589867;28;20052;-59
2021/11/27 12:34:37;;;;;;;25.45;11.27;;;;;;;4.75;100.00;99307.28;10589390;28;20384;-59
2021/11/27 12:39:40;;;;;;;21.50;10.90;;;;;;;4.64;100.00;99307.09;10589521;28;20044;-61
2021/11/27 12:44:45;;;;;;;23.27;9.77;;;;;;;4.52;100.00;99303.41;10588794;28;20521;-61
2021/11/27 12:49:55;;;;;;;19.75;9.93;;;;;;;4.02;100.00;99294.09;10589411;28;20049;-59
2021/11/27 12:55:07;;;;;;;19.08;9.57;;;;;;;4.08;100.00;99293.75;10570554;28;20051;-59
2021/11/27 13:00:14;;;;;;;27.65;9.80;;;;;;;4.22;100.00;99309.38;10588467;28;20484;-58
2021/11/27 13:05:16;;;;;;;21.05;9.77;;;;;;;4.35;100.00;99321.66;10588118;28;20039;-60
2021/11/27 13:10:21;;;;;;;19.63;9.60;;;;;;;4.17;100.00;99332.13;10588141;28;20054;-58
2021/11/27 13:15:24;;;;;;;21.70;8.77;;;;;;;4.35;100.00;99327.66;10587781;28;20044;-58
2021/11/27 13:20:42;;;;;;;19.17;8.65;;;;;;;4.31;100.00;99333.13;10587786;28;20058;-59
2021/11/27 13:25:47;;;;;;;20.75;8.73;;;;;;;4.45;100.00;99347.00;10587100;28;20398;-60
2021/11/27 13:30:51;;;;;;;16.35;9.57;;;;;;;4.54;100.00;99345.66;10586070;28;20054;-59
2021/11/27 13:35:54;;;;;;;19.77;8.75;;;;;;;4.80;100.00;99351.94;10586942;28;20404;-58
2021/11/27 13:40:56;;;;;;;22.83;9.48;;;;;;;4.81;100.00;99345.03;10586566;28;20403;-58
2021/11/27 13:46:04;;;;;;;22.77;9.48;;;;;;;4.61;100.00;99346.97;10586591;28;20483;-59
2021/11/27 13:51:08;;;;;;;20.08;9.35;;;;;;;4.60;100.00;99347.88;10586422;28;20058;-59
2021/11/27 13:56:10;;;;;;;29.98;9.70;;;;;;;4.40;100.00;99350.75;10586139;28;20086;-58
2021/11/27 14:01:13;;;;;;;18.23;10.23;;;;;;;4.25;100.00;99352.41;10567823;28;20065;-59
2021/11/27 14:06:16;;;;;;;19.55;10.07;;;;;;;4.21;100.00;99350.91;10586293;28;20043;-60
2021/11/27 14:11:18;;;;;;;18.13;9.82;;;;;;;4.34;100.00;99392.53;10585361;28;20054;-59
2021/11/27 14:16:21;;;;;;;21.63;10.35;;;;;;;4.53;100.00;99394.97;10585706;28;20070;-59
2021/11/27 14:21:23;;;;;;;23.90;10.85;;;;;;;4.15;100.00;99390.09;10585117;28;20051;-59
2021/11/27 14:26:26;;;;;;;30.45;11.57;;;;;;;4.29;100.00;99390.22;10585082;28;20047;-57
2021/11/27 14:31:34;;;;;;;26.73;10.90;;;;;;;4.09;100.00;99384.31;10584482;28;20411;-56
2021/11/27 14:36:38;;;;;;;21.70;9.25;;;;;;;4.18;100.00;99402.91;10584656;28;20040;-59
2021/11/27 14:41:42;;;;;;;16.05;7.97;;;;;;;3.93;100.00;99393.81;10583744;28;20054;-58
2021/11/27 14:46:51;;;;;;;19.88;8.27;;;;;;;4.06;100.00;99407.78;10584452;28;20054;-59
2021/11/27 14:52:15;;;;;;;13.40;7.65;;;;;;;3.97;100.00;99404.84;10583932;28;20487;-59
2021/11/27 14:57:20;;;;;;;17.00;8.30;;;;;;;3.96;100.00;99404.03;10583895;28;20399;-61
2021/11/27 15:02:29;;;;;;;17.70;7.65;;;;;;;3.80;100.00;99410.91;10583394;28;20051;-58
2021/11/27 15:07:32;;;;;;;12.15;6.90;;;;;;;3.70;100.00;99405.38;10583607;28;20152;-58
2021/11/27 15:12:34;;;;;;;19.30;8.23;;;;;;;3.45;100.00;99400.63;10583226;28;20052;-60
2021/11/27 15:17:38;;;;;;;19.52;7.18;;;;;;;3.60;100.00;99398.97;10565203;28;20043;-59
2021/11/27 15:22:41;;;;;;;17.05;6.93;;;;;;;3.49;100.00;99402.13;10582462;28;20054;-59
2021/11/27 15:27:43;;;;;;;21.35;7.05;;;;;;;3.69;100.00;99411.47;10583149;28;20055;-58
2021/11/27 15:32:46;;;;;;;15.43;7.53;;;;;;;3.51;100.00;99408.06;10582551;28;20047;-58
2021/11/27 15:37:52;;;;;;;15.32;6.43;;;;;;;3.52;100.00;99414.91;10582421;28;20052;-58
2021/11/27 15:42:54;;;;;;;21.63;6.53;;;;;;;3.56;100.00;99416.41;10582264;28;20403;-60
2021/11/27 15:47:57;;;;;;;13.68;5.78;;;;;;;3.48;100.00;99421.13;10582660;28;20062;-59
2021/11/27 15:53:00;;;;;;;12.35;7.07;;;;;;;3.57;100.00;99427.63;10581278;28;20051;-60
2021/11/27 15:58:03;;;;;;;15.57;6.90;;;;;;;3.47;100.00;99419.47;10581440;28;20055;-55
2021/11/27 16:03:05;;;;;;;13.60;7.38;;;;;;;3.78;100.00;99436.03;10581420;28;20371;-58
2021/11/27 16:08:08;;;;;;;18.35;7.38;;;;;;;3.44;100.00;99429.97;10581912;28;20051;-59
2021/11/27 16:13:10;;;;;;;16.38;7.90;;;;;;;3.62;100.00;99430.81;10581680;28;20050;-58
2021/11/27 16:18:12;;;;;;;14.07;6.93;;;;;;;3.74;100.00;99450.06;10581597;28;20055;-59
2021/11/27 16:23:15;;;;;;;14.77;7.00;;;;;;;3.50;100.00;99445.22;10581243;28;20475;-59
2021/11/27 16:28:17;;;;;;;17.40;7.60;;;;;;;3.75;100.00;99467.25;10581701;28;20044;-60
2021/11/27 16:33:19;;;;;;;15.95;7.25;;;;;;;3.52;100.00;99469.25;10581285;28;20057;-59
2021/11/27 16:38:22;;;;;;;11.68;7.05;;;;;;;3.72;100.00;99482.03;10581736;28;20063;-59
2021/11/27 16:43:24;;;;;;;15.55;9.15;;;;;;;3.27;100.00;99467.03;10581101;28;20040;-59
2021/11/27 16:48:26;;;;;;;13.70;9.27;;;;;;;3.36;100.00;99479.50;10581500;28;20043;-59
2021/11/27 16:53:29;;;;;;;12.95;9.60;;;;;;;3.16;100.00;99480.47;10580829;28;20043;-61
2021/11/27 16:58:31;;;;;;;22.30;11.18;;;;;;;3.57;100.00;99498.34;10580567;28;20526;-59
2021/11/27 17:03:34;;;;;;;16.75;11.52;;;;;;;3.21;100.00;99491.44;10582235;28;20048;-57
2021/11/27 17:08:36;;;;;;;15.40;11.15;;;;;;;3.43;100.00;99506.78;10588210;28;20403;-56
2021/11/27 17:13:46;;;;;;;18.85;12.50;;;;;;;3.06;100.00;99492.16;10588381;28;20054;-59
2021/11/27 17:18:56;;;;;;;18.73;11.02;;;;;;;3.42;100.00;99507.69;10570908;28;20048;-60
2021/11/27 17:23:59;;;;;;;16.45;11.10;;;;;;;3.18;100.00;99501.94;10587703;28;20421;-58
2021/11/27 17:29:02;;;;;;;20.02;11.73;;;;;;;3.17;100.00;99508.84;10569308;28;20435;-60
2021/11/27 17:34:06;;;;;;;20.17;11.65;;;;;;;3.41;100.00;99529.28;10587182;28;20058;-59
2021/11/27 17:39:09;;;;;;;21.70;12.32;;;;;;;3.53;100.00;99527.84;10587347;28;20049;-59
2021/11/27 17:44:13;;;;;;;25.05;14.48;;;;;;;3.20;100.00;99518.22;10586624;28;20052;-56
2021/11/27 17:49:15;;;;;;;20.45;12.85;;;;;;;3.04;100.00;99514.66;10587096;28;20067;-60
2021/11/27 17:54:18;;;;;;;26.40;12.73;;;;;;;3.22;100.00;99521.56;10586483;28;20055;-58
2021/11/27 17:59:20;;;;;;;24.90;14.25;;;;;;;3.10;100.00;99516.97;10585903;28;20052;-59
2021/11/27 18:04:24;;;;;;;18.80;12.07;;;;;;;2.96;100.00;99518.47;10586111;28;20048;-58
2021/11/27 18:09:27;;;;;;;23.52;12.50;;;;;;;3.02;100.00;99539.78;10585880;28;20053;-58
2021/11/27 18:14:33;;;;;;;22.70;12.98;;;;;;;3.02;100.00;99540.59;10584958;28;20058;-56
2021/11/27 18:19:35;;;;;;;19.05;12.50;;;;;;;2.98;100.00;99544.25;10585605;28;20056;-61
2021/11/27 18:24:44;;;;;;;19.48;13.30;;;;;;;2.89;100.00;99540.34;10585270;28;20047;-62
2021/11/27 18:29:47;;;;;;;23.27;12.98;;;;;;;3.25;100.00;99543.88;10585209;28;20048;-59
2021/11/27 18:34:51;;;;;;;17.13;12.45;;;;;;;3.02;100.00;99543.19;10584615;28;20039;-59
2021/11/27 18:39:57;;;;;;;30.67;17.25;;;;;;;2.92;100.00;99549.69;10584571;28;20043;-58
2021/11/27 18:45:00;;;;;;;26.48;14.68;;;;;;;2.94;100.00;99561.66;10584455;28;20054;-60
2021/11/27 18:50:02;;;;;;;23.42;14.18;;;;;;;3.09;100.00;99565.28;10584516;28;20430;-59
2021/11/27 18:55:05;;;;;;;21.38;13.73;;;;;;;2.94;100.00;99561.66;10583748;28;20479;-59
2021/11/27 19:00:09;;;;;;;24.35;14.55;;;;;;;2.92;100.00;99563.44;10583560;28;20060;-58
2021/11/27 19:05:11;;;;;;;23.67;14.85;;;;;;;3.14;100.00;99580.56;10583397;28;20089;-58
2021/11/27 19:10:14;;;;;;;20.98;14.68;;;;;;;2.97;100.00;99571.84;10583684;28;20051;-60
2021/11/27 19:15:16;;;;;;;23.20;15.98;;;;;;;3.02;100.00;99570.81;10583298;28;20050;-59
2021/11/27 19:20:18;;;;;;;30.48;17.65;;;;;;;2.95;100.00;99570.25;10582967;28;20044;-59
2021/11/27 19:25:21;;;;;;;27.40;14.57;;;;;;;2.90;100.00;99567.84;10582953;28;20051;-58
2021/11/27 19:30:25;;;;;;;21.52;13.43;;;;;;;3.12;100.00;99578.06;10582401;28;20051;-59
2021/11/27 19:35:27;;;;;;;33.05;14.77;;;;;;;2.88;100.00;99579.19;10582552;28;20050;-58
2021/11/27 19:40:30;;;;;;;28.98;14.63;;;;;;;2.86;100.00;99580.97;10582309;28;20135;-57
2021/11/27 19:45:32;;;;;;;25.67;15.68;;;;;;;2.83;100.00;99588.91;10582093;28;20078;-59
2021/11/27 19:50:35;;;;;;;26.50;14.65;;;;;;;2.94;100.00;99587.50;10582103;28;20376;-58
2021/11/27 19:55:38;;;;;;;28.83;16.15;;;;;;;2.90;100.00;99591.13;10582041;28;20048;-60
2021/11/27 20:00:43;;;;;;;31.42;15.15;;;;;;;2.87;100.00;99609.34;10581913;28;20055;-59
2021/11/27 20:05:47;;;;;;;26.25;16.00;;;;;;;3.05;100.00;99628.38;10581812;28;20040;-60
2021/11/27 20:10:51;;;;;;;23.85;16.00;;;;;;;2.84;100.00;99606.94;10581541;28;20054;-58
2021/11/27 20:15:54;;;;;;;29.13;16.77;;;;;;;2.86;100.00;99614.59;10581457;28;20414;-59
2021/11/27 20:20:56;;;;;;;27.10;17.73;;;;;;;2.83;100.00;99617.34;10581236;28;20043;-59
2021/11/27 20:25:58;;;;;;;32.10;18.45;;;;;;;2.91;100.00;99625.59;10581535;28;20044;-58
2021/11/27 20:31:01;;;;;;;31.60;18.75;;;;;;;3.13;100.00;99641.00;10581273;28;20055;-59
2021/11/27 20:36:07;;;;;;;29.80;18.92;;;;;;;3.02;100.00;99644.03;10581598;28;20075;-60
2021/11/27 20:41:10;;;;;;;38.75;20.95;;;;;;;2.92;100.00;99641.00;10587739;28;20051;-60
2021/11/27 20:46:14;;;;;;;42.83;20.63;;;;;;;3.08;100.00;99654.13;10590438;28;20048;-60
2021/11/27 20:51:16;;;;;;;29.33;17.95;;;;;;;2.98;100.00;99647.69;10589116;28;20054;-58
2021/11/27 20:56:19;;;;;;;33.42;20.85;;;;;;;3.05;100.00;99656.84;10588990;28;20052;-58
2021/11/27 21:01:21;;;;;;;36.88;21.52;;;;;;;3.17;100.00;99650.28;10588572;28;20044;-60
2021/11/27 21:06:24;;;;;;;31.95;19.42;;;;;;;2.94;100.00;99646.13;10588438;28;20078;-59
2021/11/27 21:11:38;;;;;;;45.05;22.58;;;;;;;3.10;100.00;99654.88;10588669;28;20075;-59
2021/11/27 21:16:42;;;;;;;40.53;23.38;;;;;;;2.91;100.00;99646.28;10587995;28;20069;-60
2021/11/27 21:21:45;;;;;;;39.30;23.90;;;;;;;3.09;100.00;99658.41;10587674;28;20054;-60
2021/11/27 21:26:47;;;;;;;37.45;23.75;;;;;;;2.94;100.00;99659.91;10588289;28;20050;-61
2021/11/27 21:31:50;;;;;;;33.63;21.75;;;;;;;3.04;100.00;99660.31;10587596;28;20051;-60
2021/11/27 21:36:53;;;;;;;45.38;25.58;;;;;;;2.90;100.00;99645.41;10569030;28;20461;-62
2021/11/27 21:41:55;;;;;;;47.70;26.63;;;;;;;2.88;100.00;99649.00;10586840;28;20478;-58
2021/11/27 21:46:57;;;;;;;45.60;24.70;;;;;;;2.85;100.00;99649.97;10587296;28;20061;-59
2021/11/27 21:52:00;;;;;;;39.22;23.58;;;;;;;2.95;100.00;99658.97;10585415;28;20048;-58
2021/11/27 21:57:02;;;;;;;41.45;23.25;;;;;;;2.98;100.00;99665.78;10586637;28;20062;-58
2021/11/27 22:02:05;;;;;;;44.03;24.55;;;;;;;3.00;100.00;99663.13;10586004;28;20040;-60
2021/11/27 22:07:07;;;;;;;35.35;19.35;;;;;;;3.10;100.00;99677.31;10586184;28;20066;-60
2021/11/27 22:12:10;;;;;;;43.20;21.85;;;;;;;3.13;100.00;99666.84;10585626;28;20047;-59
2021/11/27 22:17:12;;;;;;;43.72;23.38;;;;;;;3.02;100.00;99674.25;10585662;28;20044;-58
2021/11/27 22:22:15;;;;;;;29.98;18.58;;;;;;;3.13;100.00;99675.44;10584919;28;20050;-59
2021/11/27 22:27:17;;;;;;;32.58;20.65;;;;;;;3.02;100.00;99677.66;10585088;28;20040;-60
2021/11/27 22:32:20;;;;;;;35.45;20.67;;;;;;;3.13;100.00;99675.44;10584652;28;20415;-59
2021/11/27 22:37:23;;;;;;;34.58;18.85;;;;;;;3.03;100.00;99678.50;10585258;28;20495;-61
2021/11/27 22:42:26;;;;;;;40.65;21.13;;;;;;;2.84;100.00;99675.88;10584417;28;20039;-59
2021/11/27 22:47:29;;;;;;;32.92;20.95;;;;;;;2.98;100.00;99679.53;10584281;28;20044;-61
2021/11/27 22:52:31;;;;;;;33.92;20.23;;;;;;;3.04;100.00;99681.00;10583864;28;20058;-59
2021/11/27 22:57:33;;;;;;;36.20;21.27;;;;;;;3.06;100.00;99691.28;10583552;28;20058;-59
2021/11/27 23:02:36;;;;;;;29.92;16.25;;;;;;;3.00;100.00;99694.16;10583239;28;20039;-60
2021/11/27 23:07:38;;;;;;;29.02;16.42;;;;;;;3.11;100.00;99689.34;10583826;28;20131;-60
2021/11/27 23:12:43;;;;;;;22.15;13.77;;;;;;;3.09;100.00;99692.00;10583289;28;20047;-58